createdAt,value
2022-12-03T00:02:04.410Z,-0.73
2022-12-03T00:04:36.877Z,-0.74
2022-12-03T00:07:03.382Z,-0.79
2022-12-03T00:09:30.022Z,-0.78
2022-12-03T00:11:56.482Z,-0.78
2022-12-03T00:14:24.414Z,-0.80
2022-12-03T00:16:52.904Z,-0.79
2022-12-03T00:19:19.508Z,-0.70
2022-12-03T00:21:45.947Z,-0.72
2022-12-03T00:24:12.433Z,-0.80
2022-12-03T00:26:41.204Z,-0.78
2022-12-03T00:29:07.761Z,-0.77
2022-12-03T00:31:34.337Z,-0.84
2022-12-03T00:34:01.366Z,-0.80
2022-12-03T00:36:30.500Z,-0.82
2022-12-03T00:39:00.181Z,-0.77
2022-12-03T00:41:26.636Z,-0.74
2022-12-03T00:43:57.339Z,-0.78
2022-12-03T00:46:24.948Z,-0.86
2022-12-03T00:48:51.602Z,-0.89
2022-12-03T00:51:21.633Z,-0.83
2022-12-03T00:53:48.161Z,-0.81
2022-12-03T00:56:18.129Z,-0.83
2022-12-03T00:58:47.390Z,-0.91
2022-12-03T01:01:14.068Z,-0.86
2022-12-03T01:03:40.607Z,-0.80
2022-12-03T01:06:07.230Z,-0.80
2022-12-03T01:08:36.430Z,-0.80
2022-12-03T01:11:26.484Z,-0.78
2022-12-03T01:13:55.989Z,-0.86
2022-12-03T01:16:25.828Z,-0.90
2022-12-03T01:18:52.848Z,-0.91
2022-12-03T01:21:19.752Z,-0.90
2022-12-03T01:23:46.898Z,-0.84
2022-12-03T01:26:13.544Z,-0.86
2022-12-03T01:28:41.908Z,-0.86
2022-12-03T01:31:27.630Z,-0.84
2022-12-03T01:33:54.219Z,-0.84
2022-12-03T01:36:20.766Z,-0.82
2022-12-03T01:38:48.652Z,-0.81
2022-12-03T01:41:21.010Z,-0.86
2022-12-03T01:43:48.760Z,-0.86
2022-12-03T01:46:19.913Z,-0.80
2022-12-03T01:48:48.320Z,-0.90
2022-12-03T01:51:15.557Z,-0.94
2022-12-03T01:53:48.724Z,-0.92
2022-12-03T01:56:16.892Z,-0.94
2022-12-03T01:58:44.745Z,-0.96
2022-12-03T02:01:14.978Z,-0.93
2022-12-03T02:03:42.184Z,-1.01
2022-12-03T02:06:16.153Z,-0.95
2022-12-03T02:08:42.785Z,-0.94
2022-12-03T02:11:18.343Z,-0.95
2022-12-03T02:13:46.045Z,-0.98
2022-12-03T02:16:12.637Z,-0.94
2022-12-03T02:18:39.304Z,-0.91
2022-12-03T02:21:16.758Z,-0.97
2022-12-03T02:24:08.004Z,-0.98
2022-12-03T02:26:34.555Z,-1.02
2022-12-03T02:29:02.432Z,-0.95
2022-12-03T02:31:29.071Z,-1.01
2022-12-03T02:33:58.701Z,-1.02
2022-12-03T02:36:25.469Z,-0.98
2022-12-03T02:38:52.098Z,-1.02
2022-12-03T02:41:39.984Z,-1.03
2022-12-03T02:44:07.979Z,-1.02
2022-12-03T02:46:35.159Z,-0.99
2022-12-03T02:49:06.563Z,-0.98
2022-12-03T02:51:34.548Z,-1.02
2022-12-03T02:54:01.883Z,-1.05
2022-12-03T02:56:32.503Z,-0.99
2022-12-03T02:59:03.154Z,-1.00
2022-12-03T03:01:30.047Z,-1.05
2022-12-03T03:03:57.038Z,-1.06
2022-12-03T03:06:23.680Z,-1.00
2022-12-03T03:08:50.320Z,-1.05
2022-12-03T03:11:18.606Z,-1.06
2022-12-03T03:13:47.798Z,-1.04
2022-12-03T03:16:14.565Z,-1.03
2022-12-03T03:18:42.015Z,-1.02
2022-12-03T03:21:08.672Z,-0.98
2022-12-03T03:23:38.357Z,-0.99
2022-12-03T03:26:09.342Z,-0.95
2022-12-03T03:28:39.252Z,-0.95
2022-12-03T03:31:08.291Z,-1.01
2022-12-03T03:33:35.245Z,-0.98
2022-12-03T03:36:02.429Z,-1.00
2022-12-03T03:38:30.317Z,-0.99
2022-12-03T03:40:59.777Z,-1.00
2022-12-03T03:43:26.560Z,-0.95
2022-12-03T03:45:53.927Z,-0.98
2022-12-03T03:48:21.506Z,-0.99
2022-12-03T03:50:56.173Z,-1.02
2022-12-03T03:53:24.446Z,-0.98
2022-12-03T03:55:51.430Z,-1.02
2022-12-03T03:58:18.056Z,-1.07
2022-12-03T04:00:45.302Z,-1.11
2022-12-03T04:03:12.661Z,-1.07
2022-12-03T04:05:39.853Z,-1.11
2022-12-03T04:08:06.470Z,-1.13
2022-12-03T04:10:56.139Z,-1.10
2022-12-03T04:13:22.859Z,-1.07
2022-12-03T04:15:49.812Z,-1.06
2022-12-03T04:18:52.168Z,-1.14
2022-12-03T04:21:39.505Z,-1.07
2022-12-03T04:24:07.945Z,-1.02
2022-12-03T04:26:52.941Z,-1.15
2022-12-03T04:29:20.839Z,-1.13
2022-12-03T04:32:06.545Z,-1.11
2022-12-03T04:34:51.856Z,-1.12
2022-12-03T04:37:18.931Z,-1.13
2022-12-03T04:39:45.500Z,-1.20
2022-12-03T04:42:14.753Z,-1.15
2022-12-03T04:44:41.308Z,-1.13
2022-12-03T04:47:09.508Z,-1.12
2022-12-03T04:49:40.430Z,-1.13
2022-12-03T04:52:07.728Z,-1.10
2022-12-03T04:54:34.529Z,-1.10
2022-12-03T04:57:01.544Z,-1.09
2022-12-03T04:59:28.056Z,-1.08
2022-12-03T05:01:54.766Z,-1.10
2022-12-03T05:04:21.370Z,-1.18
2022-12-03T05:06:47.951Z,-1.17
2022-12-03T05:09:17.807Z,-1.20
2022-12-03T05:11:50.262Z,-1.19
2022-12-03T05:14:16.799Z,-1.18
2022-12-03T05:16:43.392Z,-1.23
2022-12-03T05:19:10.113Z,-1.18
2022-12-03T05:21:36.611Z,-1.15
2022-12-03T05:24:03.633Z,-1.20
2022-12-03T05:26:30.258Z,-1.15
2022-12-03T05:28:56.753Z,-1.17
2022-12-03T05:31:23.348Z,-1.21
2022-12-03T05:33:49.994Z,-1.21
2022-12-03T05:36:16.463Z,-1.20
2022-12-03T05:38:43.003Z,-1.17
2022-12-03T05:41:28.030Z,-1.18
2022-12-03T05:43:54.726Z,-1.24
2022-12-03T05:46:21.342Z,-1.23
2022-12-03T05:48:47.983Z,-1.25
2022-12-03T05:51:14.492Z,-1.25
2022-12-03T05:53:41.565Z,-1.25
2022-12-03T05:56:08.142Z,-1.22
2022-12-03T05:58:34.860Z,-1.25
2022-12-03T06:01:01.323Z,-1.22
2022-12-03T06:03:28.193Z,-1.22
2022-12-03T06:05:54.806Z,-1.22
2022-12-03T06:08:24.584Z,-1.24
2022-12-03T06:11:00.307Z,-1.31
2022-12-03T06:13:26.821Z,-1.26
2022-12-03T06:15:53.370Z,-1.33
2022-12-03T06:18:19.890Z,-1.32
2022-12-03T06:20:46.402Z,-1.25
2022-12-03T06:23:12.891Z,-1.31
2022-12-03T06:25:39.452Z,-1.28
2022-12-03T06:28:07.285Z,-1.36
2022-12-03T06:30:35.315Z,-1.31
2022-12-03T06:33:02.138Z,-1.28
2022-12-03T06:35:31.377Z,-1.28
2022-12-03T06:37:57.914Z,-1.32
2022-12-03T06:40:26.314Z,-1.36
2022-12-03T06:42:53.090Z,-1.43
2022-12-03T06:45:19.745Z,-1.36
2022-12-03T06:47:46.475Z,-1.40
2022-12-03T06:50:13.813Z,-1.43
2022-12-03T06:52:40.434Z,-1.37
2022-12-03T06:55:07.726Z,-1.35
2022-12-03T06:57:34.313Z,-1.35
2022-12-03T07:00:00.791Z,-1.31
2022-12-03T07:02:27.359Z,-1.33
2022-12-03T07:04:54.172Z,-1.35
2022-12-03T07:07:26.903Z,-1.30
2022-12-03T07:09:56.764Z,-1.35
2022-12-03T07:12:23.242Z,-1.35
2022-12-03T07:14:49.719Z,-1.41
2022-12-03T07:17:18.626Z,-1.41
2022-12-03T07:19:45.093Z,-1.40
2022-12-03T07:22:11.871Z,-1.34
2022-12-03T07:24:38.507Z,-1.41
2022-12-03T07:27:04.985Z,-1.41
2022-12-03T07:29:31.468Z,-1.39
2022-12-03T07:31:57.940Z,-1.33
2022-12-03T07:34:39.671Z,-1.37
2022-12-03T07:37:06.127Z,-1.34
2022-12-03T07:39:32.749Z,-1.34
2022-12-03T07:41:59.966Z,-1.35
2022-12-03T07:44:26.568Z,-1.37
2022-12-03T07:46:53.073Z,-1.40
2022-12-03T07:49:19.679Z,-1.41
2022-12-03T07:51:53.741Z,-1.37
2022-12-03T07:54:23.819Z,-1.42
2022-12-03T07:56:50.467Z,-1.43
2022-12-03T07:59:17.434Z,-1.36
2022-12-03T08:01:47.121Z,-1.38
2022-12-03T08:04:14.843Z,-1.34
2022-12-03T08:06:41.638Z,-1.30
2022-12-03T08:09:09.969Z,-1.34
2022-12-03T08:11:45.146Z,-1.36
2022-12-03T08:14:13.802Z,-1.37
2022-12-03T08:16:42.815Z,-1.34
2022-12-03T08:19:16.557Z,-1.32
2022-12-03T08:21:43.197Z,-1.33
2022-12-03T08:24:20.690Z,-1.35
2022-12-03T08:26:48.949Z,-1.30
2022-12-03T08:29:18.471Z,-1.32
2022-12-03T08:31:57.213Z,-1.32
2022-12-03T08:34:27.566Z,-1.31
2022-12-03T08:37:06.055Z,-1.28
2022-12-03T08:39:34.942Z,-1.31
2022-12-03T08:42:23.208Z,-1.33
2022-12-03T08:44:49.682Z,-1.30
2022-12-03T08:47:24.122Z,-1.32
2022-12-03T08:50:00.282Z,-1.26
2022-12-03T08:52:35.889Z,-1.26
2022-12-03T08:55:38.868Z,-1.31
2022-12-03T08:58:41.868Z,-1.30
2022-12-03T09:01:11.514Z,-1.31
2022-12-03T09:03:41.048Z,-1.32
2022-12-03T09:06:07.942Z,-1.25
2022-12-03T09:08:34.404Z,-1.26
2022-12-03T09:11:01.414Z,-1.27
2022-12-03T09:13:27.906Z,-1.32
2022-12-03T09:15:54.399Z,-1.34
2022-12-03T09:18:20.961Z,-1.32
2022-12-03T09:20:47.423Z,-1.27
2022-12-03T09:23:14.412Z,-1.30
2022-12-03T09:25:40.943Z,-1.28
2022-12-03T09:28:07.435Z,-1.32
2022-12-03T09:30:33.927Z,-1.33
2022-12-03T09:33:00.501Z,-1.35
2022-12-03T09:35:33.644Z,-1.30
2022-12-03T09:38:00.178Z,-1.27
2022-12-03T09:40:26.672Z,-1.32
2022-12-03T09:42:58.536Z,-1.28
2022-12-03T09:45:27.745Z,-1.35
2022-12-03T09:48:01.875Z,-1.34
2022-12-03T09:50:28.881Z,-1.38
2022-12-03T09:52:59.306Z,-1.39
2022-12-03T09:55:27.806Z,-1.35
2022-12-03T09:57:57.785Z,-1.34
2022-12-03T10:00:31.024Z,-1.39
2022-12-03T10:03:02.308Z,-1.47
2022-12-03T10:05:29.422Z,-1.42
2022-12-03T10:08:03.762Z,-1.36
2022-12-03T10:10:30.530Z,-1.34
2022-12-03T10:12:57.129Z,-1.38
2022-12-03T10:15:23.951Z,-1.37
2022-12-03T10:17:54.474Z,-1.43
2022-12-03T10:20:22.768Z,-1.40
2022-12-03T10:22:49.749Z,-1.38
2022-12-03T10:25:19.454Z,-1.32
2022-12-03T10:27:59.357Z,-1.33
2022-12-03T10:30:28.518Z,-1.38
2022-12-03T10:32:58.012Z,-1.32
2022-12-03T10:35:25.897Z,-1.33
2022-12-03T10:38:06.813Z,-1.41
2022-12-03T10:40:35.766Z,-1.40
2022-12-03T10:43:22.919Z,-1.33
2022-12-03T10:46:03.722Z,-1.37
2022-12-03T10:48:31.389Z,-1.38
2022-12-03T10:51:05.098Z,-1.38
2022-12-03T10:53:37.136Z,-1.34
2022-12-03T10:56:06.662Z,-1.35
2022-12-03T10:58:38.593Z,-1.36
2022-12-03T11:01:19.168Z,-1.31
2022-12-03T11:03:47.830Z,-1.33
2022-12-03T11:06:17.442Z,-1.28
2022-12-03T11:08:49.260Z,-1.28
2022-12-03T11:11:21.008Z,-1.27
2022-12-03T11:13:51.538Z,-1.37
2022-12-03T11:16:53.368Z,-1.27
2022-12-03T11:19:39.752Z,-1.23
2022-12-03T11:22:06.199Z,-1.26
2022-12-03T11:24:35.329Z,-1.21
2022-12-03T11:27:01.790Z,-1.22
2022-12-03T11:29:46.200Z,-1.22
2022-12-03T11:32:35.152Z,-1.20
2022-12-03T11:35:01.653Z,-1.14
2022-12-03T11:37:30.087Z,-1.15
2022-12-03T11:40:24.781Z,-1.16
2022-12-03T11:42:51.804Z,-1.22
2022-12-03T11:45:35.138Z,-1.20
2022-12-03T11:48:10.609Z,-1.25
2022-12-03T11:50:53.939Z,-1.21
2022-12-03T11:53:26.184Z,-1.20
2022-12-03T11:56:08.941Z,-1.11
2022-12-03T11:58:38.292Z,-1.16
2022-12-03T12:01:07.432Z,-1.19
2022-12-03T12:03:54.348Z,-1.21
2022-12-03T12:06:23.952Z,-1.20
2022-12-03T12:08:59.676Z,-1.23
2022-12-03T12:11:31.703Z,-1.15
2022-12-03T12:14:12.802Z,-1.19
2022-12-03T12:16:51.366Z,-1.26
2022-12-03T12:20:10.773Z,-1.23
2022-12-03T12:22:37.279Z,-1.19
2022-12-03T12:25:06.336Z,-1.21
2022-12-03T12:27:45.064Z,-1.15
2022-12-03T12:30:17.564Z,-1.17
2022-12-03T12:33:07.698Z,-1.18
2022-12-03T12:35:34.328Z,-1.20
2022-12-03T12:38:10.781Z,-1.22
2022-12-03T12:40:40.110Z,-1.22
2022-12-03T12:43:32.123Z,-1.21
2022-12-03T12:46:45.570Z,-1.23
2022-12-03T12:49:00.005Z,-1.23
2022-12-03T12:51:26.765Z,-1.26
2022-12-03T12:53:53.815Z,-1.28
2022-12-03T12:56:30.258Z,-1.25
2022-12-03T12:59:01.058Z,-1.28
2022-12-03T13:01:32.012Z,-1.29
2022-12-03T13:03:59.532Z,-1.30
2022-12-03T13:06:29.125Z,-1.25
2022-12-03T13:08:57.077Z,-1.26
2022-12-03T13:11:41.338Z,-1.28
2022-12-03T13:14:34.117Z,-1.25
2022-12-03T13:17:07.719Z,-1.29
2022-12-03T13:19:47.355Z,-1.24
2022-12-03T13:22:20.090Z,-1.24
2022-12-03T13:24:50.640Z,-1.32
2022-12-03T13:27:17.103Z,-1.33
2022-12-03T13:29:45.169Z,-1.32
2022-12-03T13:32:16.582Z,-1.24
2022-12-03T13:34:44.561Z,-1.27
2022-12-03T13:37:26.913Z,-1.25
2022-12-03T13:39:58.458Z,-1.25
2022-12-03T13:42:39.328Z,-1.24
2022-12-03T13:45:14.945Z,-1.18
2022-12-03T13:47:46.632Z,-1.21
2022-12-03T13:50:25.109Z,-1.23
2022-12-03T13:52:52.932Z,-1.19
2022-12-03T13:55:29.895Z,-1.18
2022-12-03T13:57:57.371Z,-1.18
2022-12-03T14:00:24.319Z,-1.19
2022-12-03T14:02:54.292Z,-1.20
2022-12-03T14:05:21.265Z,-1.26
2022-12-03T14:07:47.816Z,-1.25
2022-12-03T14:10:14.442Z,-1.32
2022-12-03T14:12:40.924Z,-1.27
2022-12-03T14:15:09.105Z,-1.34
2022-12-03T14:17:35.614Z,-1.32
2022-12-03T14:20:03.830Z,-1.35
2022-12-03T14:22:30.883Z,-1.30
2022-12-03T14:24:57.861Z,-1.37
2022-12-03T14:27:24.855Z,-1.34
2022-12-03T14:29:52.100Z,-1.34
2022-12-03T14:32:19.140Z,-1.35
2022-12-03T14:34:45.838Z,-1.34
2022-12-03T14:37:12.437Z,-1.36
2022-12-03T14:39:41.822Z,-1.39
2022-12-03T14:42:14.297Z,-1.38
2022-12-03T14:44:51.524Z,-1.40
2022-12-03T14:47:22.238Z,-1.39
2022-12-03T14:49:50.427Z,-1.35
2022-12-03T14:52:17.532Z,-1.35
2022-12-03T14:54:45.823Z,-1.38
2022-12-03T14:57:14.734Z,-1.35
2022-12-03T14:59:42.597Z,-1.40
2022-12-03T15:02:10.761Z,-1.45
2022-12-03T15:04:39.997Z,-1.49
2022-12-03T15:07:07.086Z,-1.46
2022-12-03T15:09:33.716Z,-1.45
2022-12-03T15:12:00.834Z,-1.50
2022-12-03T15:14:27.763Z,-1.46
2022-12-03T15:16:54.393Z,-1.44
2022-12-03T15:19:23.378Z,-1.48
2022-12-03T15:21:55.939Z,-1.42
2022-12-03T15:24:22.421Z,-1.40
2022-12-03T15:26:49.600Z,-1.39
2022-12-03T15:29:16.120Z,-1.43
2022-12-03T15:31:42.687Z,-1.45
2022-12-03T15:34:09.387Z,-1.44
2022-12-03T15:36:36.382Z,-1.46
2022-12-03T15:39:04.106Z,-1.43
2022-12-03T15:41:33.852Z,-1.39
2022-12-03T15:44:02.233Z,-1.44
2022-12-03T15:46:34.092Z,-1.42
2022-12-03T15:49:00.697Z,-1.43
2022-12-03T15:51:30.262Z,-1.44
2022-12-03T15:53:56.751Z,-1.45
2022-12-03T15:56:23.235Z,-1.42
2022-12-03T15:58:49.750Z,-1.43
2022-12-03T16:01:19.483Z,-1.41
2022-12-03T16:03:46.127Z,-1.49
2022-12-03T16:06:12.928Z,-1.45
2022-12-03T16:08:39.430Z,-1.42
2022-12-03T16:11:08.839Z,-1.45
2022-12-03T16:13:37.539Z,-1.45
2022-12-03T16:16:07.117Z,-1.43
2022-12-03T16:18:33.579Z,-1.43
2022-12-03T16:21:03.396Z,-1.40
2022-12-03T16:23:30.360Z,-1.46
2022-12-03T16:25:56.960Z,-1.46
2022-12-03T16:28:26.572Z,-1.42
2022-12-03T16:30:53.556Z,-1.47
2022-12-03T16:33:27.017Z,-1.41
2022-12-03T16:35:54.239Z,-1.43
2022-12-03T16:38:20.746Z,-1.43
2022-12-03T16:40:48.466Z,-1.44
2022-12-03T16:43:14.952Z,-1.42
2022-12-03T16:45:56.184Z,-1.42
2022-12-03T16:48:26.279Z,-1.40
2022-12-03T16:50:53.265Z,-1.45
2022-12-03T16:53:19.781Z,-1.45
2022-12-03T16:55:46.233Z,-1.42
2022-12-03T16:58:17.274Z,-1.39
2022-12-03T17:00:43.737Z,-1.42
2022-12-03T17:03:10.325Z,-1.44
2022-12-03T17:05:40.404Z,-1.41
2022-12-03T17:08:06.968Z,-1.40
2022-12-03T17:10:33.562Z,-1.41
2022-12-03T17:13:15.277Z,-1.47
2022-12-03T17:15:41.834Z,-1.47
2022-12-03T17:18:09.038Z,-1.47
2022-12-03T17:20:36.331Z,-1.41
2022-12-03T17:23:03.558Z,-1.42
2022-12-03T17:25:31.266Z,-1.38
2022-12-03T17:27:57.872Z,-1.45
2022-12-03T17:30:24.408Z,-1.49
2022-12-03T17:32:51.991Z,-1.44
2022-12-03T17:35:20.485Z,-1.49
2022-12-03T17:37:50.050Z,-1.47
2022-12-03T17:40:17.560Z,-1.44
2022-12-03T17:42:46.062Z,-1.46
2022-12-03T17:45:13.034Z,-1.48
2022-12-03T17:47:39.947Z,-1.44
2022-12-03T17:50:08.101Z,-1.44
2022-12-03T17:52:34.782Z,-1.44
2022-12-03T17:55:12.169Z,-1.47
2022-12-03T17:57:43.856Z,-1.45
2022-12-03T18:00:11.009Z,-1.47
2022-12-03T18:02:37.484Z,-1.45
2022-12-03T18:05:04.329Z,-1.45
2022-12-03T18:07:33.897Z,-1.47
2022-12-03T18:10:00.554Z,-1.55
2022-12-03T18:12:27.194Z,-1.50
2022-12-03T18:14:56.424Z,-1.50
2022-12-03T18:17:25.592Z,-1.49
2022-12-03T18:19:52.483Z,-1.45
2022-12-03T18:22:19.375Z,-1.49
2022-12-03T18:24:50.242Z,-1.48
2022-12-03T18:27:18.516Z,-1.41
2022-12-03T18:29:44.993Z,-1.42
2022-12-03T18:32:27.046Z,-1.40
2022-12-03T18:34:54.780Z,-1.40
2022-12-03T18:37:21.984Z,-1.40
2022-12-03T18:39:48.618Z,-1.41
2022-12-03T18:42:21.881Z,-1.37
2022-12-03T18:44:51.133Z,-1.36
2022-12-03T18:47:20.656Z,-1.36
2022-12-03T18:49:47.894Z,-1.37
2022-12-03T18:52:23.287Z,-1.41
2022-12-03T18:54:49.826Z,-1.39
2022-12-03T18:57:16.415Z,-1.40
2022-12-03T18:59:42.925Z,-1.39
2022-12-03T19:05:11.701Z,-1.35
2022-12-03T19:07:43.170Z,-1.33
2022-12-03T19:10:10.904Z,-1.33
2022-12-03T19:12:37.903Z,-1.35
2022-12-03T19:15:05.936Z,-1.36
2022-12-03T19:17:38.095Z,-1.34
2022-12-03T19:20:05.280Z,-1.36
2022-12-03T19:22:33.193Z,-1.34
2022-12-03T19:24:59.875Z,-1.34
2022-12-03T19:27:26.405Z,-1.30
2022-12-03T19:29:53.139Z,-1.30
2022-12-03T19:32:19.861Z,-1.28
2022-12-03T19:34:46.459Z,-1.27
2022-12-03T19:37:13.161Z,-1.27
2022-12-03T19:39:39.648Z,-1.23
2022-12-03T19:42:06.158Z,-1.24
2022-12-03T19:44:33.097Z,-1.28
2022-12-03T19:46:59.695Z,-1.28
2022-12-03T19:49:26.495Z,-1.30
2022-12-03T19:51:53.254Z,-1.28
2022-12-03T19:54:19.834Z,-1.27
2022-12-03T19:56:46.427Z,-1.26
2022-12-03T19:59:14.146Z,-1.23
2022-12-03T20:01:43.076Z,-1.24
2022-12-03T20:04:12.341Z,-1.23
2022-12-03T20:06:39.195Z,-1.24
2022-12-03T20:09:09.300Z,-1.23
2022-12-03T20:11:35.916Z,-1.26
2022-12-03T20:14:08.374Z,-1.22
2022-12-03T20:16:35.045Z,-1.22
2022-12-03T20:19:04.335Z,-1.23
2022-12-03T20:21:33.241Z,-1.27
2022-12-03T20:24:00.087Z,-1.25
2022-12-03T20:26:28.536Z,-1.23
2022-12-03T20:28:56.477Z,-1.21
2022-12-03T20:31:25.815Z,-1.21
2022-12-03T20:33:56.235Z,-1.25
2022-12-03T20:36:23.293Z,-1.20
2022-12-03T20:38:56.974Z,-1.19
2022-12-03T20:41:23.980Z,-1.19
2022-12-03T20:43:51.301Z,-1.18
2022-12-03T20:46:30.063Z,-1.20
2022-12-03T20:48:57.537Z,-1.23
2022-12-03T20:51:31.039Z,-1.21
2022-12-03T20:53:59.576Z,-1.16
2022-12-03T20:56:31.297Z,-1.17
2022-12-03T20:59:01.866Z,-1.19
2022-12-03T21:01:28.981Z,-1.20
2022-12-03T21:03:56.803Z,-1.19
2022-12-03T21:06:25.862Z,-1.20
2022-12-03T21:08:54.336Z,-1.24
2022-12-03T21:11:24.206Z,-1.20
2022-12-03T21:13:50.935Z,-1.17
2022-12-03T21:16:45.674Z,-1.20
2022-12-03T21:19:09.778Z,-1.19
2022-12-03T21:21:36.374Z,-1.24
2022-12-03T21:24:02.925Z,-1.24
2022-12-03T21:26:29.538Z,-1.24
2022-12-03T21:28:56.096Z,-1.25
2022-12-03T21:31:28.858Z,-1.17
2022-12-03T21:33:56.633Z,-1.15
2022-12-03T21:36:25.253Z,-1.14
2022-12-03T21:38:52.044Z,-1.16
2022-12-03T21:41:22.275Z,-1.17
2022-12-03T21:43:48.758Z,-1.16
2022-12-03T21:47:12.753Z,-1.16
2022-12-03T21:49:03.941Z,-1.15
2022-12-03T21:51:30.738Z,-1.13
2022-12-03T21:53:57.338Z,-1.21
2022-12-03T21:56:23.912Z,-1.22
2022-12-03T21:58:50.395Z,-1.18
2022-12-03T22:01:20.288Z,-1.19
2022-12-03T22:03:47.537Z,-1.13
2022-12-03T22:06:14.951Z,-1.17
2022-12-03T22:08:41.922Z,-1.18
2022-12-03T22:11:13.744Z,-1.20
2022-12-03T22:13:40.997Z,-1.18
2022-12-03T22:16:13.818Z,-1.16
2022-12-03T22:18:40.834Z,-1.12
2022-12-03T22:21:12.775Z,-1.19
2022-12-03T22:23:39.616Z,-1.21
2022-12-03T22:26:11.491Z,-1.16
2022-12-03T22:28:38.079Z,-1.19
2022-12-03T22:31:08.769Z,-1.16
2022-12-03T22:33:36.386Z,-1.16
2022-12-03T22:36:08.455Z,-1.18
2022-12-03T22:38:35.011Z,-1.17
2022-12-03T22:41:06.220Z,-1.15
2022-12-03T22:43:33.293Z,-1.16
2022-12-03T22:46:00.114Z,-1.15
2022-12-03T22:48:26.733Z,-1.17
2022-12-03T22:50:53.313Z,-1.14
2022-12-03T22:53:20.357Z,-1.17
2022-12-03T22:55:58.257Z,-1.14
2022-12-03T22:58:26.291Z,-1.11
2022-12-03T23:00:54.560Z,-1.13
2022-12-03T23:03:23.493Z,-1.16
2022-12-03T23:05:50.038Z,-1.15
2022-12-03T23:08:19.390Z,-1.11
2022-12-03T23:10:50.850Z,-1.16
2022-12-03T23:13:17.784Z,-1.21
2022-12-03T23:15:49.700Z,-1.24
2022-12-03T23:18:17.452Z,-1.28
2022-12-03T23:20:52.967Z,-1.28
2022-12-03T23:23:20.991Z,-1.24
2022-12-03T23:25:57.528Z,-1.19
2022-12-03T23:28:27.287Z,-1.18
2022-12-03T23:30:54.252Z,-1.19
2022-12-03T23:33:20.910Z,-1.21
2022-12-03T23:35:47.492Z,-1.16
2022-12-03T23:38:14.476Z,-1.17
2022-12-03T23:40:47.740Z,-1.20
2022-12-03T23:43:17.458Z,-1.20
2022-12-03T23:45:43.954Z,-1.17
2022-12-03T23:48:10.661Z,-1.23
2022-12-03T23:50:41.212Z,-1.20
2022-12-03T23:53:07.782Z,-1.16
2022-12-03T23:55:34.279Z,-1.13
2022-12-03T23:58:00.814Z,-1.14
